Pinon, Arizona
Current Conditions -  °F | °C
As of 9:53 PM on Monday 22 Dec 2014 (Local Time) from KRQE Reporting Station
Clear Clear  
Wind Chill: 29°   Ceiling: Unl
Heat Index: 38°   Visibility: 10mi
Dew Point: 24°   Wind: 15mph
Humidity: 57%   Direction: 340°NNW
Pressure: 29.93"   Gusts: NA
Location:  36.1°N, 110.23°W
Report Text: KRQE 230453Z AUTO 34013KT 10SM CLR 03/M04 A2993 RMK AO2 SLP097 T00331044 TSNO
Loading
Personal Weather Stations






























Interactive Weather Map New forecast layout! Learn more

10-Day Weather Forecast

Advertisements
Track Severe Weather on mobile